Pays
Station

 

Conditions  météo  pour  Hartford, Hartford-Brainard Airport  -  Etats-Unis    Etats-Unis

  
-1 °C
    
 
 

METAR pour Hartford, Hartford-Brainard Airport :

KHFD 142353Z 33009KT 10SM CLR M01/M13 A3054 RMK AO2 SLP340 T10111128 10011 21011 51025

 

Voici le bulletin pour Hartford, Hartford-Brainard Airport - Etats-Unis.
 
Le bulletin a été fait il y a 45 minutes, à 23:53 UTC .
Le vent soufflait à la vitesse de 4.6 mètres par seconde de Nord/Nord-ouest (330°).
 
La température était de -1 °C, avec un point de rosée à -13 °C.
La température ressentie était de -6 °C.
 
La pression atmosphérique était de 1034 hPa.
L'humidité relative était de 39.5%.
 
Le ciel était clair.
 
La visibilité globale était de 16.1 kilomètres.
 

 
 
 

Pays :   A   B   C   D   E   F   G   H   I   J   K   L   M   N   O   P   Q   R   S   T   U   V   W   Y   Z

 

Partenaires :  Info Météo avec Met'info
Météo Marine avec MeteoMarine.net
Infos Site  |  Infos Légales  |  Crédits  |  Confidentialité
Contactez-nous  |  Ajouter aux favoris
© 2013-2018 METAR - Tous droits réservés